sensor_id;sensor_type;location;lat;lon;timestamp;P1;durP1;ratioP1;P2;durP2;ratioP2
78987;SDS011;74752;44.786;37.680;2024-03-23T00:51:10;16.17;;;8.48;;
78987;SDS011;74752;44.786;37.680;2024-03-23T00:53:17;14.57;;;8.18;;
78987;SDS011;74752;44.786;37.680;2024-03-23T00:54:21;15.43;;;8.07;;
78987;SDS011;74752;44.786;37.680;2024-03-23T00:55:24;12.60;;;7.97;;
78987;SDS011;74752;44.786;37.680;2024-03-23T00:56:27;16.38;;;8.75;;
78987;SDS011;74752;44.786;37.680;2024-03-23T00:57:30;14.65;;;8.05;;
78987;SDS011;74752;44.786;37.680;2024-03-23T00:58:34;13.02;;;7.25;;
78987;SDS011;74752;44.786;37.680;2024-03-23T00:59:36;13.95;;;8.27;;
78987;SDS011;74752;44.786;37.680;2024-03-23T01:00:39;15.70;;;7.88;;
78987;SDS011;74752;44.786;37.680;2024-03-23T01:01:42;13.82;;;7.70;;
78987;SDS011;74752;44.786;37.680;2024-03-23T01:02:44;14.20;;;7.97;;
78987;SDS011;74752;44.786;37.680;2024-03-23T01:03:47;12.82;;;7.47;;
78987;SDS011;74752;44.786;37.680;2024-03-23T01:04:50;15.15;;;8.38;;
78987;SDS011;74752;44.786;37.680;2024-03-23T01:05:53;18.58;;;9.55;;
78987;SDS011;74752;44.786;37.680;2024-03-23T01:06:56;16.42;;;8.60;;
78987;SDS011;74752;44.786;37.680;2024-03-23T01:07:58;16.77;;;9.35;;
78987;SDS011;74752;44.786;37.680;2024-03-23T01:09:01;12.02;;;6.85;;
78987;SDS011;74752;44.786;37.680;2024-03-23T01:10:04;16.63;;;8.82;;
78987;SDS011;74752;44.786;37.680;2024-03-23T01:11:07;14.27;;;8.18;;
78987;SDS011;74752;44.786;37.680;2024-03-23T01:12:10;15.60;;;8.43;;
78987;SDS011;74752;44.786;37.680;2024-03-23T01:13:13;18.33;;;8.13;;
78987;SDS011;74752;44.786;37.680;2024-03-23T01:14:16;16.27;;;9.20;;
78987;SDS011;74752;44.786;37.680;2024-03-23T01:15:19;14.60;;;7.38;;
78987;SDS011;74752;44.786;37.680;2024-03-23T01:16:22;17.13;;;9.00;;
78987;SDS011;74752;44.786;37.680;2024-03-23T01:17:25;16.45;;;9.27;;
78987;SDS011;74752;44.786;37.680;2024-03-23T01:18:28;16.33;;;9.23;;
78987;SDS011;74752;44.786;37.680;2024-03-23T01:19:31;14.10;;;8.13;;
78987;SDS011;74752;44.786;37.680;2024-03-23T01:20:34;16.73;;;9.43;;
78987;SDS011;74752;44.786;37.680;2024-03-23T01:21:36;16.35;;;8.95;;
78987;SDS011;74752;44.786;37.680;2024-03-23T01:22:42;13.88;;;7.53;;
78987;SDS011;74752;44.786;37.680;2024-03-23T01:23:45;18.38;;;8.75;;
78987;SDS011;74752;44.786;37.680;2024-03-23T01:24:47;14.25;;;7.80;;
78987;SDS011;74752;44.786;37.680;2024-03-23T01:25:53;14.65;;;8.27;;
78987;SDS011;74752;44.786;37.680;2024-03-23T01:26:57;17.15;;;8.13;;
78987;SDS011;74752;44.786;37.680;2024-03-23T01:28:02;17.00;;;8.65;;
78987;SDS011;74752;44.786;37.680;2024-03-23T01:29:06;14.32;;;7.95;;
78987;SDS011;74752;44.786;37.680;2024-03-23T01:30:08;13.82;;;8.07;;
78987;SDS011;74752;44.786;37.680;2024-03-23T01:31:12;15.13;;;8.10;;
78987;SDS011;74752;44.786;37.680;2024-03-23T01:32:15;14.88;;;8.02;;
78987;SDS011;74752;44.786;37.680;2024-03-23T01:33:20;15.27;;;8.00;;
78987;SDS011;74752;44.786;37.680;2024-03-23T01:34:23;15.43;;;8.80;;
78987;SDS011;74752;44.786;37.680;2024-03-23T01:35:26;14.85;;;8.35;;
78987;SDS011;74752;44.786;37.680;2024-03-23T01:36:30;16.40;;;7.93;;
78987;SDS011;74752;44.786;37.680;2024-03-23T01:37:34;14.52;;;7.63;;
78987;SDS011;74752;44.786;37.680;2024-03-23T01:38:36;16.80;;;8.27;;
78987;SDS011;74752;44.786;37.680;2024-03-23T01:39:40;17.35;;;8.73;;
78987;SDS011;74752;44.786;37.680;2024-03-23T01:40:43;16.15;;;8.18;;
78987;SDS011;74752;44.786;37.680;2024-03-23T01:41:46;15.52;;;8.50;;
78987;SDS011;74752;44.786;37.680;2024-03-23T01:42:57;15.20;;;8.20;;
78987;SDS011;74752;44.786;37.680;2024-03-23T01:44:11;15.07;;;8.80;;
78987;SDS011;74752;44.786;37.680;2024-03-23T01:45:14;15.70;;;8.52;;
78987;SDS011;74752;44.786;37.680;2024-03-23T01:46:17;20.55;;;9.15;;
78987;SDS011;74752;44.786;37.680;2024-03-23T01:47:20;18.92;;;8.55;;
78987;SDS011;74752;44.786;37.680;2024-03-23T01:48:24;18.15;;;9.60;;
78987;SDS011;74752;44.786;37.680;2024-03-23T01:49:26;20.60;;;9.68;;
78987;SDS011;74752;44.786;37.680;2024-03-23T01:50:31;20.20;;;8.77;;
78987;SDS011;74752;44.786;37.680;2024-03-23T01:51:38;17.83;;;9.35;;
78987;SDS011;74752;44.786;37.680;2024-03-23T01:52:43;17.80;;;9.48;;
78987;SDS011;74752;44.786;37.680;2024-03-23T01:53:46;21.15;;;11.35;;
78987;SDS011;74752;44.786;37.680;2024-03-23T01:54:48;18.00;;;9.18;;
78987;SDS011;74752;44.786;37.680;2024-03-23T01:55:52;15.77;;;8.00;;
78987;SDS011;74752;44.786;37.680;2024-03-23T01:56:55;19.85;;;9.73;;
78987;SDS011;74752;44.786;37.680;2024-03-23T01:58:00;19.13;;;9.90;;
78987;SDS011;74752;44.786;37.680;2024-03-23T01:59:04;20.65;;;10.35;;
78987;SDS011;74752;44.786;37.680;2024-03-23T02:00:07;19.55;;;8.95;;
78987;SDS011;74752;44.786;37.680;2024-03-23T02:01:12;16.75;;;9.52;;
78987;SDS011;74752;44.786;37.680;2024-03-23T02:02:15;17.65;;;9.55;;
78987;SDS011;74752;44.786;37.680;2024-03-23T02:03:26;16.33;;;8.77;;
78987;SDS011;74752;44.786;37.680;2024-03-23T02:04:31;16.30;;;8.27;;
78987;SDS011;74752;44.786;37.680;2024-03-23T02:05:34;17.05;;;8.80;;
78987;SDS011;74752;44.786;37.680;2024-03-23T02:06:37;16.52;;;8.68;;
78987;SDS011;74752;44.786;37.680;2024-03-23T02:07:48;15.85;;;8.48;;
78987;SDS011;74752;44.786;37.680;2024-03-23T02:08:55;14.32;;;8.60;;
78987;SDS011;74752;44.786;37.680;2024-03-23T02:09:58;15.27;;;8.05;;
78987;SDS011;74752;44.786;37.680;2024-03-23T02:11:01;16.55;;;8.10;;
78987;SDS011;74752;44.786;37.680;2024-03-23T02:12:04;14.07;;;8.35;;
78987;SDS011;74752;44.786;37.680;2024-03-23T02:13:08;15.73;;;7.88;;
78987;SDS011;74752;44.786;37.680;2024-03-23T02:14:11;15.82;;;7.78;;
78987;SDS011;74752;44.786;37.680;2024-03-23T02:15:15;15.05;;;7.30;;
78987;SDS011;74752;44.786;37.680;2024-03-23T02:16:18;13.65;;;7.63;;
78987;SDS011;74752;44.786;37.680;2024-03-23T02:17:21;14.60;;;7.68;;
78987;SDS011;74752;44.786;37.680;2024-03-23T02:18:24;15.38;;;7.72;;
78987;SDS011;74752;44.786;37.680;2024-03-23T02:19:26;15.23;;;7.82;;
78987;SDS011;74752;44.786;37.680;2024-03-23T02:20:30;16.45;;;7.82;;
78987;SDS011;74752;44.786;37.680;2024-03-23T02:21:34;13.95;;;7.00;;
78987;SDS011;74752;44.786;37.680;2024-03-23T02:22:36;13.80;;;7.53;;
78987;SDS011;74752;44.786;37.680;2024-03-23T02:23:40;13.98;;;8.43;;
78987;SDS011;74752;44.786;37.680;2024-03-23T02:24:44;14.30;;;7.25;;
78987;SDS011;74752;44.786;37.680;2024-03-23T02:25:46;12.02;;;6.53;;
78987;SDS011;74752;44.786;37.680;2024-03-23T02:26:51;12.93;;;6.65;;
78987;SDS011;74752;44.786;37.680;2024-03-23T02:27:54;13.25;;;7.70;;
78987;SDS011;74752;44.786;37.680;2024-03-23T02:28:56;13.43;;;7.20;;
78987;SDS011;74752;44.786;37.680;2024-03-23T02:30:01;12.65;;;7.40;;
78987;SDS011;74752;44.786;37.680;2024-03-23T02:31:04;11.32;;;6.43;;
78987;SDS011;74752;44.786;37.680;2024-03-23T02:32:07;14.90;;;6.82;;
78987;SDS011;74752;44.786;37.680;2024-03-23T02:33:11;12.77;;;6.65;;
78987;SDS011;74752;44.786;37.680;2024-03-23T02:34:14;12.88;;;6.53;;
78987;SDS011;74752;44.786;37.680;2024-03-23T02:35:16;13.02;;;7.40;;
78987;SDS011;74752;44.786;37.680;2024-03-23T02:36:20;13.88;;;7.63;;
78987;SDS011;74752;44.786;37.680;2024-03-23T02:37:23;13.90;;;7.40;;
78987;SDS011;74752;44.786;37.680;2024-03-23T02:38:26;14.52;;;7.30;;
78987;SDS011;74752;44.786;37.680;2024-03-23T02:39:28;13.25;;;6.93;;
78987;SDS011;74752;44.786;37.680;2024-03-23T02:40:33;12.68;;;7.25;;
78987;SDS011;74752;44.786;37.680;2024-03-23T02:41:36;17.33;;;7.55;;
78987;SDS011;74752;44.786;37.680;2024-03-23T02:42:40;13.55;;;6.63;;
78987;SDS011;74752;44.786;37.680;2024-03-23T02:43:43;11.90;;;6.72;;
78987;SDS011;74752;44.786;37.680;2024-03-23T02:44:46;11.52;;;6.50;;
78987;SDS011;74752;44.786;37.680;2024-03-23T02:45:48;14.63;;;7.35;;
78987;SDS011;74752;44.786;37.680;2024-03-23T02:46:52;12.68;;;6.22;;
78987;SDS011;74752;44.786;37.680;2024-03-23T02:47:55;12.88;;;7.00;;
78987;SDS011;74752;44.786;37.680;2024-03-23T02:48:58;14.13;;;7.53;;
78987;SDS011;74752;44.786;37.680;2024-03-23T02:50:01;13.45;;;8.02;;
78987;SDS011;74752;44.786;37.680;2024-03-23T02:51:04;13.85;;;7.32;;
78987;SDS011;74752;44.786;37.680;2024-03-23T02:52:07;17.13;;;8.93;;
78987;SDS011;74752;44.786;37.680;2024-03-23T02:53:10;15.95;;;8.25;;
78987;SDS011;74752;44.786;37.680;2024-03-23T02:54:13;14.95;;;7.85;;
78987;SDS011;74752;44.786;37.680;2024-03-23T02:55:16;17.73;;;8.25;;
78987;SDS011;74752;44.786;37.680;2024-03-23T02:56:21;14.35;;;6.80;;
78987;SDS011;74752;44.786;37.680;2024-03-23T02:57:24;16.13;;;7.50;;
78987;SDS011;74752;44.786;37.680;2024-03-23T02:58:27;19.45;;;9.13;;
78987;SDS011;74752;44.786;37.680;2024-03-23T02:59:30;15.02;;;8.45;;
78987;SDS011;74752;44.786;37.680;2024-03-23T03:00:34;17.13;;;8.52;;
78987;SDS011;74752;44.786;37.680;2024-03-23T03:01:37;17.83;;;8.38;;
78987;SDS011;74752;44.786;37.680;2024-03-23T03:02:40;17.33;;;8.65;;
78987;SDS011;74752;44.786;37.680;2024-03-23T03:03:43;16.17;;;8.20;;
78987;SDS011;74752;44.786;37.680;2024-03-23T03:04:46;16.05;;;7.20;;
78987;SDS011;74752;44.786;37.680;2024-03-23T03:05:56;14.13;;;7.68;;
78987;SDS011;74752;44.786;37.680;2024-03-23T03:07:00;15.68;;;7.80;;
78987;SDS011;74752;44.786;37.680;2024-03-23T03:08:04;14.32;;;7.80;;
78987;SDS011;74752;44.786;37.680;2024-03-23T03:09:07;14.82;;;8.15;;
78987;SDS011;74752;44.786;37.680;2024-03-23T03:10:11;15.02;;;7.22;;
78987;SDS011;74752;44.786;37.680;2024-03-23T03:11:15;12.57;;;6.50;;
78987;SDS011;74752;44.786;37.680;2024-03-23T03:12:18;14.38;;;7.38;;
78987;SDS011;74752;44.786;37.680;2024-03-23T03:13:21;13.70;;;7.40;;
78987;SDS011;74752;44.786;37.680;2024-03-23T03:14:24;13.80;;;7.50;;
78987;SDS011;74752;44.786;37.680;2024-03-23T03:15:27;13.68;;;7.45;;
78987;SDS011;74752;44.786;37.680;2024-03-23T03:16:30;16.38;;;7.78;;
78987;SDS011;74752;44.786;37.680;2024-03-23T03:17:33;12.70;;;6.65;;
78987;SDS011;74752;44.786;37.680;2024-03-23T03:18:36;12.88;;;7.25;;
78987;SDS011;74752;44.786;37.680;2024-03-23T03:19:40;14.45;;;7.53;;
78987;SDS011;74752;44.786;37.680;2024-03-23T03:20:44;15.68;;;7.35;;
78987;SDS011;74752;44.786;37.680;2024-03-23T03:21:46;13.88;;;7.13;;
78987;SDS011;74752;44.786;37.680;2024-03-23T03:22:50;15.52;;;7.20;;
78987;SDS011;74752;44.786;37.680;2024-03-23T03:23:55;13.45;;;6.80;;
78987;SDS011;74752;44.786;37.680;2024-03-23T03:24:58;16.08;;;8.10;;
78987;SDS011;74752;44.786;37.680;2024-03-23T03:26:02;13.18;;;7.32;;
78987;SDS011;74752;44.786;37.680;2024-03-23T03:27:06;16.50;;;8.55;;
78987;SDS011;74752;44.786;37.680;2024-03-23T03:28:10;15.93;;;8.02;;
78987;SDS011;74752;44.786;37.680;2024-03-23T03:29:14;14.82;;;7.35;;
78987;SDS011;74752;44.786;37.680;2024-03-23T03:30:16;16.45;;;7.80;;
78987;SDS011;74752;44.786;37.680;2024-03-23T03:31:18;13.65;;;6.88;;
78987;SDS011;74752;44.786;37.680;2024-03-23T03:32:21;15.75;;;7.82;;
78987;SDS011;74752;44.786;37.680;2024-03-23T03:33:25;17.50;;;8.20;;
78987;SDS011;74752;44.786;37.680;2024-03-23T03:34:30;15.63;;;8.10;;
78987;SDS011;74752;44.786;37.680;2024-03-23T03:35:34;16.50;;;8.63;;
78987;SDS011;74752;44.786;37.680;2024-03-23T03:36:36;17.17;;;7.95;;
78987;SDS011;74752;44.786;37.680;2024-03-23T03:37:39;19.52;;;9.45;;
78987;SDS011;74752;44.786;37.680;2024-03-23T03:38:42;16.98;;;8.35;;
78987;SDS011;74752;44.786;37.680;2024-03-23T03:39:45;19.50;;;9.70;;
78987;SDS011;74752;44.786;37.680;2024-03-23T03:40:47;20.48;;;9.70;;
78987;SDS011;74752;44.786;37.680;2024-03-23T03:41:51;23.75;;;10.77;;
78987;SDS011;74752;44.786;37.680;2024-03-23T03:42:55;20.95;;;10.07;;
78987;SDS011;74752;44.786;37.680;2024-03-23T03:43:57;18.42;;;9.43;;
78987;SDS011;74752;44.786;37.680;2024-03-23T03:45:07;19.40;;;10.00;;
78987;SDS011;74752;44.786;37.680;2024-03-23T03:46:11;19.38;;;9.73;;
78987;SDS011;74752;44.786;37.680;2024-03-23T03:47:15;24.30;;;10.43;;
78987;SDS011;74752;44.786;37.680;2024-03-23T03:48:17;19.27;;;9.60;;
78987;SDS011;74752;44.786;37.680;2024-03-23T03:49:20;19.77;;;9.63;;
78987;SDS011;74752;44.786;37.680;2024-03-23T03:50:25;22.90;;;10.23;;
78987;SDS011;74752;44.786;37.680;2024-03-23T03:51:27;22.67;;;9.88;;
78987;SDS011;74752;44.786;37.680;2024-03-23T03:52:31;17.70;;;8.60;;
78987;SDS011;74752;44.786;37.680;2024-03-23T03:53:34;19.25;;;9.30;;
78987;SDS011;74752;44.786;37.680;2024-03-23T03:54:36;17.05;;;9.98;;
78987;SDS011;74752;44.786;37.680;2024-03-23T03:55:40;16.50;;;7.97;;
78987;SDS011;74752;44.786;37.680;2024-03-23T03:56:43;17.70;;;7.78;;
78987;SDS011;74752;44.786;37.680;2024-03-23T03:57:47;20.02;;;9.38;;
78987;SDS011;74752;44.786;37.680;2024-03-23T03:58:51;18.45;;;8.32;;
78987;SDS011;74752;44.786;37.680;2024-03-23T03:59:54;13.80;;;7.35;;
78987;SDS011;74752;44.786;37.680;2024-03-23T04:00:57;15.65;;;7.82;;
78987;SDS011;74752;44.786;37.680;2024-03-23T04:02:00;13.43;;;6.40;;
78987;SDS011;74752;44.786;37.680;2024-03-23T04:03:03;13.95;;;6.90;;
78987;SDS011;74752;44.786;37.680;2024-03-23T04:04:06;17.92;;;7.65;;
78987;SDS011;74752;44.786;37.680;2024-03-23T04:05:09;17.95;;;8.07;;
78987;SDS011;74752;44.786;37.680;2024-03-23T04:06:12;16.10;;;7.50;;
78987;SDS011;74752;44.786;37.680;2024-03-23T04:07:20;15.70;;;6.82;;
78987;SDS011;74752;44.786;37.680;2024-03-23T04:08:25;15.57;;;6.20;;
78987;SDS011;74752;44.786;37.680;2024-03-23T04:09:27;15.65;;;6.43;;
78987;SDS011;74752;44.786;37.680;2024-03-23T04:10:32;13.80;;;6.60;;
78987;SDS011;74752;44.786;37.680;2024-03-23T04:11:35;16.08;;;6.70;;
78987;SDS011;74752;44.786;37.680;2024-03-23T04:12:37;12.73;;;6.57;;
78987;SDS011;74752;44.786;37.680;2024-03-23T04:13:41;13.27;;;6.05;;
78987;SDS011;74752;44.786;37.680;2024-03-23T04:14:45;13.85;;;6.80;;
78987;SDS011;74752;44.786;37.680;2024-03-23T04:15:48;13.63;;;6.70;;
78987;SDS011;74752;44.786;37.680;2024-03-23T04:16:51;12.57;;;6.13;;
78987;SDS011;74752;44.786;37.680;2024-03-23T04:17:54;13.35;;;6.32;;
78987;SDS011;74752;44.786;37.680;2024-03-23T04:18:56;12.00;;;6.30;;
78987;SDS011;74752;44.786;37.680;2024-03-23T04:20:01;11.93;;;5.78;;
78987;SDS011;74752;44.786;37.680;2024-03-23T04:21:05;13.20;;;6.35;;
78987;SDS011;74752;44.786;37.680;2024-03-23T04:22:08;12.00;;;6.43;;
78987;SDS011;74752;44.786;37.680;2024-03-23T04:23:11;12.05;;;6.47;;
78987;SDS011;74752;44.786;37.680;2024-03-23T04:24:14;10.52;;;5.60;;
78987;SDS011;74752;44.786;37.680;2024-03-23T04:25:17;13.95;;;6.60;;
78987;SDS011;74752;44.786;37.680;2024-03-23T04:26:23;14.77;;;7.20;;
78987;SDS011;74752;44.786;37.680;2024-03-23T04:27:25;14.70;;;6.90;;
78987;SDS011;74752;44.786;37.680;2024-03-23T04:28:28;12.68;;;6.35;;
78987;SDS011;74752;44.786;37.680;2024-03-23T04:29:31;16.30;;;6.95;;
78987;SDS011;74752;44.786;37.680;2024-03-23T04:30:34;11.82;;;6.10;;
78987;SDS011;74752;44.786;37.680;2024-03-23T04:31:38;14.20;;;6.53;;
78987;SDS011;74752;44.786;37.680;2024-03-23T04:32:41;13.32;;;6.28;;
78987;SDS011;74752;44.786;37.680;2024-03-23T04:33:45;12.45;;;6.15;;
78987;SDS011;74752;44.786;37.680;2024-03-23T04:34:48;13.38;;;6.95;;
78987;SDS011;74752;44.786;37.680;2024-03-23T04:35:51;12.52;;;6.35;;
78987;SDS011;74752;44.786;37.680;2024-03-23T04:36:54;14.75;;;6.70;;
78987;SDS011;74752;44.786;37.680;2024-03-23T04:37:57;17.13;;;6.72;;
78987;SDS011;74752;44.786;37.680;2024-03-23T04:39:01;16.50;;;7.60;;
78987;SDS011;74752;44.786;37.680;2024-03-23T04:40:04;14.85;;;6.65;;
78987;SDS011;74752;44.786;37.680;2024-03-23T04:41:07;14.30;;;6.30;;
78987;SDS011;74752;44.786;37.680;2024-03-23T04:42:10;13.00;;;6.70;;
78987;SDS011;74752;44.786;37.680;2024-03-23T04:43:14;11.90;;;6.20;;
78987;SDS011;74752;44.786;37.680;2024-03-23T04:44:16;13.95;;;6.22;;
78987;SDS011;74752;44.786;37.680;2024-03-23T04:45:21;12.57;;;6.45;;
78987;SDS011;74752;44.786;37.680;2024-03-23T04:46:24;14.00;;;6.32;;
78987;SDS011;74752;44.786;37.680;2024-03-23T04:47:27;11.00;;;5.97;;
78987;SDS011;74752;44.786;37.680;2024-03-23T04:48:30;15.15;;;7.97;;
78987;SDS011;74752;44.786;37.680;2024-03-23T04:49:33;12.73;;;6.22;;
78987;SDS011;74752;44.786;37.680;2024-03-23T04:50:38;11.63;;;5.82;;
78987;SDS011;74752;44.786;37.680;2024-03-23T04:51:41;11.65;;;6.15;;
78987;SDS011;74752;44.786;37.680;2024-03-23T04:52:47;10.68;;;5.93;;
78987;SDS011;74752;44.786;37.680;2024-03-23T04:53:50;12.15;;;6.32;;
78987;SDS011;74752;44.786;37.680;2024-03-23T04:54:53;10.90;;;5.40;;
78987;SDS011;74752;44.786;37.680;2024-03-23T04:55:56;14.32;;;6.25;;
78987;SDS011;74752;44.786;37.680;2024-03-23T04:57:01;13.00;;;5.82;;
78987;SDS011;74752;44.786;37.680;2024-03-23T04:58:04;13.20;;;6.43;;
78987;SDS011;74752;44.786;37.680;2024-03-23T04:59:06;12.05;;;5.95;;
78987;SDS011;74752;44.786;37.680;2024-03-23T05:00:11;11.48;;;6.45;;
78987;SDS011;74752;44.786;37.680;2024-03-23T05:01:21;15.35;;;6.07;;
78987;SDS011;74752;44.786;37.680;2024-03-23T05:02:24;13.82;;;6.10;;
78987;SDS011;74752;44.786;37.680;2024-03-23T05:03:27;10.68;;;5.18;;
78987;SDS011;74752;44.786;37.680;2024-03-23T05:04:31;15.13;;;5.80;;
78987;SDS011;74752;44.786;37.680;2024-03-23T05:05:34;12.82;;;6.30;;
78987;SDS011;74752;44.786;37.680;2024-03-23T05:06:37;11.65;;;6.05;;
78987;SDS011;74752;44.786;37.680;2024-03-23T05:07:40;11.55;;;6.20;;
78987;SDS011;74752;44.786;37.680;2024-03-23T05:08:44;10.77;;;4.97;;
78987;SDS011;74752;44.786;37.680;2024-03-23T05:09:47;9.63;;;4.80;;
78987;SDS011;74752;44.786;37.680;2024-03-23T05:10:51;12.10;;;6.60;;
78987;SDS011;74752;44.786;37.680;2024-03-23T05:11:54;11.52;;;5.40;;
78987;SDS011;74752;44.786;37.680;2024-03-23T05:14:03;14.48;;;5.20;;
78987;SDS011;74752;44.786;37.680;2024-03-23T05:15:06;10.68;;;5.53;;
78987;SDS011;74752;44.786;37.680;2024-03-23T05:16:12;11.18;;;5.22;;
78987;SDS011;74752;44.786;37.680;2024-03-23T05:17:15;10.13;;;5.07;;
78987;SDS011;74752;44.786;37.680;2024-03-23T05:18:17;10.80;;;6.20;;
78987;SDS011;74752;44.786;37.680;2024-03-23T05:19:20;9.10;;;4.65;;
78987;SDS011;74752;44.786;37.680;2024-03-23T05:20:24;9.63;;;4.70;;
78987;SDS011;74752;44.786;37.680;2024-03-23T05:21:27;10.30;;;5.00;;
78987;SDS011;74752;44.786;37.680;2024-03-23T05:22:33;11.70;;;5.50;;
78987;SDS011;74752;44.786;37.680;2024-03-23T05:23:35;10.30;;;4.80;;
78987;SDS011;74752;44.786;37.680;2024-03-23T05:24:40;8.93;;;4.60;;
78987;SDS011;74752;44.786;37.680;2024-03-23T05:25:43;11.52;;;6.18;;
78987;SDS011;74752;44.786;37.680;2024-03-23T05:26:46;9.70;;;4.70;;
78987;SDS011;74752;44.786;37.680;2024-03-23T05:27:48;11.70;;;5.22;;
78987;SDS011;74752;44.786;37.680;2024-03-23T05:28:52;11.13;;;5.28;;
78987;SDS011;74752;44.786;37.680;2024-03-23T05:29:55;9.40;;;4.45;;
78987;SDS011;74752;44.786;37.680;2024-03-23T05:31:00;9.27;;;4.20;;
78987;SDS011;74752;44.786;37.680;2024-03-23T05:32:04;11.20;;;4.78;;
78987;SDS011;74752;44.786;37.680;2024-03-23T05:33:06;9.68;;;4.47;;
78987;SDS011;74752;44.786;37.680;2024-03-23T05:34:11;9.85;;;5.78;;
78987;SDS011;74752;44.786;37.680;2024-03-23T05:35:14;9.85;;;5.10;;
78987;SDS011;74752;44.786;37.680;2024-03-23T05:36:17;9.98;;;4.68;;
78987;SDS011;74752;44.786;37.680;2024-03-23T05:37:21;11.02;;;5.57;;
78987;SDS011;74752;44.786;37.680;2024-03-23T05:38:24;9.73;;;4.93;;
78987;SDS011;74752;44.786;37.680;2024-03-23T05:39:28;10.52;;;5.28;;
78987;SDS011;74752;44.786;37.680;2024-03-23T05:40:31;7.88;;;4.03;;
78987;SDS011;74752;44.786;37.680;2024-03-23T05:41:38;8.60;;;4.57;;
78987;SDS011;74752;44.786;37.680;2024-03-23T05:42:42;9.73;;;5.07;;
78987;SDS011;74752;44.786;37.680;2024-03-23T05:43:45;11.93;;;5.13;;
78987;SDS011;74752;44.786;37.680;2024-03-23T05:44:47;11.68;;;5.40;;
78987;SDS011;74752;44.786;37.680;2024-03-23T05:45:56;9.70;;;4.45;;
78987;SDS011;74752;44.786;37.680;2024-03-23T05:47:00;8.15;;;4.53;;
78987;SDS011;74752;44.786;37.680;2024-03-23T05:48:03;8.55;;;4.85;;
78987;SDS011;74752;44.786;37.680;2024-03-23T05:49:08;9.43;;;4.68;;
78987;SDS011;74752;44.786;37.680;2024-03-23T05:50:11;9.55;;;5.05;;
78987;SDS011;74752;44.786;37.680;2024-03-23T05:51:15;11.02;;;5.13;;
78987;SDS011;74752;44.786;37.680;2024-03-23T05:52:20;10.65;;;4.97;;
78987;SDS011;74752;44.786;37.680;2024-03-23T05:53:24;9.95;;;4.70;;
78987;SDS011;74752;44.786;37.680;2024-03-23T05:54:27;10.45;;;4.82;;
78987;SDS011;74752;44.786;37.680;2024-03-23T05:55:31;8.23;;;4.38;;
78987;SDS011;74752;44.786;37.680;2024-03-23T05:56:34;11.95;;;4.68;;
78987;SDS011;74752;44.786;37.680;2024-03-23T05:57:37;10.20;;;5.03;;
78987;SDS011;74752;44.786;37.680;2024-03-23T05:58:41;9.68;;;4.80;;
78987;SDS011;74752;44.786;37.680;2024-03-23T05:59:44;10.88;;;5.93;;
78987;SDS011;74752;44.786;37.680;2024-03-23T06:00:47;11.27;;;5.93;;
78987;SDS011;74752;44.786;37.680;2024-03-23T06:01:51;10.65;;;5.40;;
78987;SDS011;74752;44.786;37.680;2024-03-23T06:02:54;11.88;;;5.65;;
78987;SDS011;74752;44.786;37.680;2024-03-23T06:03:56;11.30;;;5.35;;
78987;SDS011;74752;44.786;37.680;2024-03-23T06:04:59;10.13;;;5.07;;
78987;SDS011;74752;44.786;37.680;2024-03-23T06:06:03;10.23;;;5.10;;
78987;SDS011;74752;44.786;37.680;2024-03-23T06:07:06;10.10;;;5.70;;
78987;SDS011;74752;44.786;37.680;2024-03-23T06:08:08;10.40;;;4.95;;
78987;SDS011;74752;44.786;37.680;2024-03-23T06:09:12;9.30;;;5.07;;
78987;SDS011;74752;44.786;37.680;2024-03-23T06:10:15;11.27;;;5.65;;
78987;SDS011;74752;44.786;37.680;2024-03-23T06:11:18;10.20;;;4.90;;
78987;SDS011;74752;44.786;37.680;2024-03-23T06:12:21;10.90;;;5.80;;
78987;SDS011;74752;44.786;37.680;2024-03-23T06:13:24;10.95;;;5.65;;
78987;SDS011;74752;44.786;37.680;2024-03-23T06:14:34;9.95;;;4.80;;
78987;SDS011;74752;44.786;37.680;2024-03-23T06:15:36;9.57;;;5.10;;
78987;SDS011;74752;44.786;37.680;2024-03-23T06:16:41;10.45;;;5.72;;
78987;SDS011;74752;44.786;37.680;2024-03-23T06:17:45;10.30;;;5.32;;
78987;SDS011;74752;44.786;37.680;2024-03-23T06:18:47;12.32;;;5.72;;
78987;SDS011;74752;44.786;37.680;2024-03-23T06:19:51;9.77;;;5.78;;
78987;SDS011;74752;44.786;37.680;2024-03-23T06:20:54;11.95;;;6.10;;
78987;SDS011;74752;44.786;37.680;2024-03-23T06:21:57;12.00;;;6.35;;
78987;SDS011;74752;44.786;37.680;2024-03-23T06:23:01;11.15;;;6.88;;
78987;SDS011;74752;44.786;37.680;2024-03-23T06:24:05;12.23;;;6.25;;
78987;SDS011;74752;44.786;37.680;2024-03-23T06:25:10;10.25;;;5.68;;
78987;SDS011;74752;44.786;37.680;2024-03-23T06:26:14;11.60;;;6.18;;
78987;SDS011;74752;44.786;37.680;2024-03-23T06:27:17;12.63;;;6.63;;
78987;SDS011;74752;44.786;37.680;2024-03-23T06:28:21;13.30;;;6.82;;
78987;SDS011;74752;44.786;37.680;2024-03-23T06:29:24;13.07;;;6.60;;
78987;SDS011;74752;44.786;37.680;2024-03-23T06:30:26;11.98;;;6.18;;
78987;SDS011;74752;44.786;37.680;2024-03-23T06:31:30;12.52;;;6.60;;
78987;SDS011;74752;44.786;37.680;2024-03-23T06:32:34;10.80;;;6.50;;
78987;SDS011;74752;44.786;37.680;2024-03-23T06:33:36;9.73;;;5.53;;
78987;SDS011;74752;44.786;37.680;2024-03-23T06:34:43;10.10;;;5.93;;
78987;SDS011;74752;44.786;37.680;2024-03-23T06:35:49;13.25;;;7.32;;
78987;SDS011;74752;44.786;37.680;2024-03-23T06:36:54;10.55;;;5.85;;
78987;SDS011;74752;44.786;37.680;2024-03-23T06:37:57;10.30;;;6.07;;
78987;SDS011;74752;44.786;37.680;2024-03-23T06:39:00;10.00;;;5.28;;
78987;SDS011;74752;44.786;37.680;2024-03-23T06:40:03;10.43;;;5.18;;
78987;SDS011;74752;44.786;37.680;2024-03-23T06:41:12;9.70;;;5.38;;
78987;SDS011;74752;44.786;37.680;2024-03-23T06:42:15;9.73;;;5.82;;
78987;SDS011;74752;44.786;37.680;2024-03-23T06:43:20;12.55;;;5.43;;
78987;SDS011;74752;44.786;37.680;2024-03-23T06:44:23;9.85;;;5.18;;
78987;SDS011;74752;44.786;37.680;2024-03-23T06:45:26;10.50;;;6.13;;
78987;SDS011;74752;44.786;37.680;2024-03-23T06:46:30;9.73;;;5.78;;
78987;SDS011;74752;44.786;37.680;2024-03-23T06:47:33;8.73;;;5.07;;
78987;SDS011;74752;44.786;37.680;2024-03-23T06:48:36;10.15;;;5.55;;
78987;SDS011;74752;44.786;37.680;2024-03-23T06:49:38;11.05;;;6.05;;
78987;SDS011;74752;44.786;37.680;2024-03-23T06:50:42;9.07;;;5.18;;
78987;SDS011;74752;44.786;37.680;2024-03-23T06:51:45;10.10;;;5.72;;
78987;SDS011;74752;44.786;37.680;2024-03-23T06:52:47;11.02;;;5.78;;
78987;SDS011;74752;44.786;37.680;2024-03-23T06:53:52;10.60;;;5.68;;
78987;SDS011;74752;44.786;37.680;2024-03-23T06:54:55;9.80;;;5.30;;
78987;SDS011;74752;44.786;37.680;2024-03-23T06:55:58;9.65;;;5.22;;
78987;SDS011;74752;44.786;37.680;2024-03-23T06:57:03;10.30;;;5.63;;
78987;SDS011;74752;44.786;37.680;2024-03-23T06:58:05;9.60;;;5.28;;
78987;SDS011;74752;44.786;37.680;2024-03-23T06:59:08;11.23;;;5.43;;
78987;SDS011;74752;44.786;37.680;2024-03-23T07:00:12;8.50;;;4.82;;
78987;SDS011;74752;44.786;37.680;2024-03-23T07:01:15;8.35;;;4.90;;
78987;SDS011;74752;44.786;37.680;2024-03-23T07:02:18;9.00;;;4.72;;
78987;SDS011;74752;44.786;37.680;2024-03-23T07:03:22;10.05;;;5.55;;
78987;SDS011;74752;44.786;37.680;2024-03-23T07:04:25;10.85;;;6.28;;
78987;SDS011;74752;44.786;37.680;2024-03-23T07:05:28;13.55;;;6.03;;